Time;durP1;ratioP1;P1;durP2;ratioP2;P2;SDS_P1;SDS_P2;PMS_P1;PMS_P2;Temp;Humidity;BMP_temperature;BMP_pressure;BME280_temperature;BME280_humidity;BME280_pressure;Samples;Min_cycle;Max_cycle;Signal;HPM_P1;HPM_P2
2022/07/03 00:01:03;;;;;;;2.28;1.00;;;17.50;99.90;;;;;;5061321;28;20032;-73
2022/07/03 00:03:29;;;;;;;1.60;1.10;;;17.50;99.90;;;;;;5080199;28;20119;-72
2022/07/03 00:05:55;;;;;;;1.73;1.20;;;17.50;99.90;;;;;;5078437;28;20040;-73
2022/07/03 00:08:21;;;;;;;1.52;0.90;;;17.40;99.90;;;;;;5078626;28;20044;-72
2022/07/03 00:10:47;;;;;;;1.65;0.98;;;17.50;99.90;;;;;;5088826;28;20149;-72
2022/07/03 00:13:12;;;;;;;1.50;1.10;;;17.50;99.90;;;;;;5074705;28;20060;-72
2022/07/03 00:15:38;;;;;;;1.88;0.85;;;17.40;99.90;;;;;;5081999;28;20044;-72
2022/07/03 00:18:04;;;;;;;1.88;1.08;;;17.40;99.90;;;;;;5066008;28;20102;-72
2022/07/03 00:20:37;;;;;;;1.80;1.42;;;17.40;99.90;;;;;;5080336;28;20640;-72
2022/07/03 00:23:07;;;;;;;1.52;1.00;;;17.20;99.90;;;;;;5083782;28;20174;-72
2022/07/03 00:25:33;;;;;;;1.63;1.23;;;17.30;99.90;;;;;;5068863;28;20540;-72
2022/07/03 00:27:59;;;;;;;1.63;1.00;;;17.30;99.90;;;;;;5066670;28;20041;-73
2022/07/03 00:30:25;;;;;;;1.90;1.00;;;17.30;99.90;;;;;;5077315;28;20043;-73
2022/07/03 00:32:52;;;;;;;1.77;1.20;;;17.20;99.90;;;;;;5071149;28;20068;-73
2022/07/03 00:35:19;;;;;;;2.00;1.02;;;17.20;99.90;;;;;;5078514;28;20123;-72
2022/07/03 00:37:45;;;;;;;4.82;1.48;;;17.20;99.90;;;;;;5073104;28;20044;-72
2022/07/03 00:40:11;;;;;;;0.80;0.60;;;17.20;99.90;;;;;;5066646;28;20040;-72
2022/07/03 00:42:39;;;;;;;1.58;1.05;;;17.30;99.90;;;;;;5075718;28;20527;-72
2022/07/03 00:45:08;;;;;;;1.55;0.75;;;17.20;99.90;;;;;;5062957;28;20604;-72
2022/07/03 00:47:36;;;;;;;1.83;0.88;;;17.20;99.90;;;;;;5070818;28;20032;-73
2022/07/03 00:50:07;;;;;;;1.60;0.90;;;17.20;99.90;;;;;;5055676;28;20080;-73
2022/07/03 00:52:35;;;;;;;2.30;1.10;;;17.20;99.90;;;;;;5079189;28;20040;-73
2022/07/03 00:55:06;;;;;;;1.13;0.80;;;17.20;99.90;;;;;;5062222;28;20040;-73
2022/07/03 00:57:31;;;;;;;1.40;0.80;;;17.20;99.90;;;;;;5067038;28;20044;-72
2022/07/03 00:59:57;;;;;;;1.58;0.90;;;17.10;99.90;;;;;;5063867;28;20443;-73
2022/07/03 01:02:45;;;;;;;1.73;1.02;;;17.20;99.90;;;;;;5075637;28;20028;-73
2022/07/03 01:05:16;;;;;;;1.45;1.10;;;17.10;99.90;;;;;;5073163;28;20469;-73
2022/07/03 01:08:06;;;;;;;1.70;1.17;;;17.10;99.90;;;;;;5079513;28;20429;-73
2022/07/03 01:10:46;;;;;;;0.82;0.60;;;17.00;99.90;;;;;;5065770;28;20032;-73
2022/07/03 01:13:22;;;;;;;5.05;1.05;;;17.00;99.90;;;;;;5059733;28;20049;-73
2022/07/03 01:16:32;;;;;;;6.88;1.10;;;16.90;99.90;;;;;;5064894;28;20051;-72
2022/07/03 01:19:26;;;;;;;1.55;0.90;;;16.90;99.90;;;;;;5068833;28;20048;-72
2022/07/03 01:21:52;;;;;;;2.17;1.25;;;16.80;99.90;;;;;;5061068;28;20083;-72
2022/07/03 01:24:36;;;;;;;1.80;1.02;;;16.80;99.90;;;;;;5049737;28;20048;-72
2022/07/03 01:27:08;;;;;;;1.30;0.98;;;16.80;99.90;;;;;;5069120;28;20042;-72
2022/07/03 01:30:03;;;;;;;1.17;0.85;;;16.70;99.90;;;;;;5068084;28;20098;-72
2022/07/03 01:32:36;;;;;;;2.10;1.08;;;16.70;99.90;;;;;;5079544;28;20068;-72
2022/07/03 01:35:02;;;;;;;2.22;1.05;;;16.60;99.90;;;;;;5039146;28;20108;-72
2022/07/03 01:37:31;;;;;;;1.88;1.10;;;16.60;99.90;;;;;;5068431;28;20047;-72
2022/07/03 01:39:58;;;;;;;1.48;1.00;;;16.50;99.90;;;;;;5073498;28;20047;-72
2022/07/03 01:42:24;;;;;;;1.10;0.80;;;16.50;99.90;;;;;;5055159;28;20044;-72
2022/07/03 01:44:57;;;;;;;1.13;0.82;;;16.50;99.90;;;;;;5066977;28;20035;-72
2022/07/03 01:47:24;;;;;;;1.58;0.90;;;16.50;99.90;;;;;;5067910;28;20045;-72
2022/07/03 01:49:51;;;;;;;1.92;1.15;;;16.50;99.90;;;;;;5070405;28;20050;-72
2022/07/03 01:52:19;;;;;;;2.28;1.20;;;16.40;99.90;;;;;;5062408;28;20448;-72
2022/07/03 01:54:46;;;;;;;3.60;1.00;;;16.50;99.90;;;;;;5076511;28;20490;-72
2022/07/03 01:57:11;;;;;;;1.45;1.00;;;16.40;99.90;;;;;;5066784;28;20044;-73
2022/07/03 01:59:37;;;;;;;1.35;0.90;;;16.40;99.90;;;;;;5066752;28;20039;-72
2022/07/03 02:02:17;;;;;;;1.73;1.00;;;16.40;99.90;;;;;;5082130;28;20036;-72
2022/07/03 02:04:53;;;;;;;1.52;0.90;;;16.30;99.90;;;;;;5074298;28;20033;-72
2022/07/03 02:07:43;;;;;;;2.63;1.10;;;16.30;99.90;;;;;;5066506;28;20032;-72
2022/07/03 02:10:15;;;;;;;1.13;1.00;;;16.20;99.90;;;;;;5055885;28;20419;-73
2022/07/03 02:12:52;;;;;;;1.50;1.00;;;16.20;99.90;;;;;;5075120;28;20345;-72
2022/07/03 02:15:28;;;;;;;1.20;0.80;;;16.10;99.90;;;;;;5062915;28;20036;-72
2022/07/03 02:17:56;;;;;;;1.67;1.05;;;16.10;99.90;;;;;;5073170;28;20052;-72
2022/07/03 02:20:24;;;;;;;2.58;1.45;;;16.10;99.90;;;;;;5081272;28;20680;-72
2022/07/03 02:22:59;;;;;;;3.42;1.00;;;16.10;99.90;;;;;;5077344;28;20081;-72
2022/07/03 02:25:34;;;;;;;2.00;1.00;;;16.00;99.90;;;;;;5058679;28;20043;-72
2022/07/03 02:28:03;;;;;;;;;;;16.00;99.90;;;;;;5075175;28;20040;-72
2022/07/03 02:30:29;;;;;;;1.45;0.98;;;15.90;99.90;;;;;;5068600;28;19923;-72
2022/07/03 02:32:58;;;;;;;1.80;0.80;;;15.90;99.90;;;;;;5079115;28;20478;-72
2022/07/03 02:35:32;;;;;;;1.30;0.82;;;15.90;99.90;;;;;;5073372;28;20052;-72
2022/07/03 02:38:18;;;;;;;1.77;1.08;;;15.90;99.90;;;;;;5058512;28;20364;-72
2022/07/03 02:40:59;;;;;;;1.27;0.90;;;15.80;99.90;;;;;;5063256;28;20047;-72
2022/07/03 02:43:37;;;;;;;1.95;1.00;;;15.80;99.90;;;;;;5079707;28;20032;-72
2022/07/03 02:46:49;;;;;;;1.23;0.70;;;15.80;99.90;;;;;;5076644;28;20044;-72
2022/07/03 02:49:49;;;;;;;1.40;0.90;;;15.80;99.90;;;;;;5061543;28;20116;-72
2022/07/03 02:52:15;;;;;;;1.33;0.88;;;15.80;99.90;;;;;;5059915;28;20552;-72
2022/07/03 02:54:47;;;;;;;2.50;0.80;;;15.70;99.90;;;;;;5060920;28;20049;-72
2022/07/03 02:57:16;;;;;;;1.60;1.05;;;15.70;99.90;;;;;;5052241;28;20211;-73
2022/07/03 02:59:56;;;;;;;0.85;0.70;;;15.60;99.90;;;;;;5056700;28;20073;-73
2022/07/03 03:02:21;;;;;;;1.95;0.85;;;15.60;99.90;;;;;;5081154;28;20032;-72
2022/07/03 03:04:57;;;;;;;2.88;1.10;;;15.50;99.90;;;;;;5066271;28;20105;-72
2022/07/03 03:07:29;;;;;;;1.50;1.00;;;15.50;99.90;;;;;;5059290;28;20045;-72
2022/07/03 03:09:56;;;;;;;1.35;0.90;;;15.50;99.90;;;;;;5067102;28;20093;-73
2022/07/03 03:12:30;;;;;;;2.17;1.08;;;15.50;99.90;;;;;;5083449;28;20044;-73
2022/07/03 03:15:01;;;;;;;1.63;1.20;;;15.40;99.90;;;;;;5076418;28;20047;-73
2022/07/03 03:17:35;;;;;;;2.22;1.30;;;15.40;99.90;;;;;;5060012;28;20063;-73
2022/07/03 03:20:02;;;;;;;1.77;1.50;;;15.40;99.90;;;;;;5073676;28;20040;-72
2022/07/03 03:22:55;;;;;;;2.65;1.50;;;15.30;99.90;;;;;;5078754;28;20063;-72
2022/07/03 03:25:20;;;;;;;2.22;1.42;;;15.20;99.90;;;;;;5079416;28;20094;-72
2022/07/03 03:27:46;;;;;;;2.17;1.48;;;15.10;99.90;;;;;;5089216;28;20063;-73
2022/07/03 03:30:12;;;;;;;1.67;1.20;;;15.10;99.90;;;;;;5070623;28;20094;-73
2022/07/03 03:32:40;;;;;;;2.47;1.73;;;15.10;99.90;;;;;;5067137;28;20125;-72
2022/07/03 03:35:06;;;;;;;1.95;1.40;;;15.10;99.90;;;;;;5086979;28;20130;-73
2022/07/03 03:37:32;;;;;;;2.58;1.60;;;15.10;99.90;;;;;;5073617;28;20116;-72
2022/07/03 03:39:58;;;;;;;5.57;1.67;;;15.10;99.90;;;;;;5065277;28;20478;-72
2022/07/03 03:42:23;;;;;;;2.55;1.38;;;15.10;99.90;;;;;;5071367;28;20040;-72
2022/07/03 03:44:49;;;;;;;3.58;1.42;;;15.10;99.90;;;;;;5083899;28;20040;-72
2022/07/03 03:47:14;;;;;;;1.60;1.20;;;15.20;99.90;;;;;;5078746;28;20599;-72
2022/07/03 03:49:40;;;;;;;2.13;1.17;;;15.20;99.90;;;;;;5069442;28;20095;-72
2022/07/03 03:52:06;;;;;;;1.80;1.38;;;15.20;99.90;;;;;;5064957;28;20062;-72
2022/07/03 03:54:32;;;;;;;1.77;1.40;;;15.20;99.90;;;;;;5072996;28;20043;-73
2022/07/03 03:57:13;;;;;;;2.05;1.20;;;15.20;99.90;;;;;;5081521;28;20041;-73
2022/07/03 03:59:39;;;;;;;5.25;1.80;;;15.20;99.90;;;;;;5065374;28;20036;-73
2022/07/03 04:02:05;;;;;;;1.92;1.40;;;15.20;99.90;;;;;;5069133;28;20047;-72
2022/07/03 04:04:30;;;;;;;3.03;1.80;;;15.20;99.90;;;;;;5077738;28;20044;-72
2022/07/03 04:06:56;;;;;;;2.65;1.35;;;15.20;99.90;;;;;;5050540;28;20047;-73
2022/07/03 04:09:21;;;;;;;2.33;1.60;;;15.30;99.90;;;;;;5056414;28;20128;-73
2022/07/03 04:11:47;;;;;;;2.20;1.60;;;15.30;99.90;;;;;;5056207;28;20036;-73
2022/07/03 04:14:12;;;;;;;2.03;1.55;;;15.30;99.90;;;;;;5071779;28;20070;-72
2022/07/03 04:16:38;;;;;;;2.80;1.48;;;15.30;99.90;;;;;;5070890;28;20058;-73
2022/07/03 04:19:04;;;;;;;2.80;1.67;;;15.40;99.90;;;;;;5065498;28;20082;-72
2022/07/03 04:21:29;;;;;;;3.05;1.52;;;15.40;99.90;;;;;;5074703;28;20333;-72
2022/07/03 04:23:55;;;;;;;2.28;1.65;;;15.40;99.90;;;;;;5072230;28;20048;-72
2022/07/03 04:26:21;;;;;;;2.10;1.65;;;15.40;99.90;;;;;;5086836;28;20115;-72
2022/07/03 04:28:46;;;;;;;3.05;1.52;;;15.40;99.90;;;;;;5073339;28;20114;-73
2022/07/03 04:31:12;;;;;;;3.28;1.33;;;15.30;99.90;;;;;;5079103;28;20032;-73
2022/07/03 04:33:37;;;;;;;1.48;1.25;;;15.40;99.90;;;;;;5075714;28;20040;-72
2022/07/03 04:36:04;;;;;;;2.35;1.35;;;15.40;99.90;;;;;;5082736;28;20041;-72
2022/07/03 04:38:31;;;;;;;2.50;1.30;;;15.30;99.90;;;;;;5062193;28;20036;-73
2022/07/03 04:40:56;;;;;;;2.75;1.60;;;15.30;99.90;;;;;;5056505;28;20123;-73
2022/07/03 04:43:22;;;;;;;2.25;1.40;;;15.30;99.90;;;;;;5075316;28;20136;-72
2022/07/03 04:45:48;;;;;;;3.35;1.80;;;15.30;99.90;;;;;;5078860;28;20045;-72
2022/07/03 04:48:13;;;;;;;3.15;1.83;;;15.30;99.90;;;;;;5080063;28;20055;-73
2022/07/03 04:50:39;;;;;;;1.83;1.50;;;15.30;99.90;;;;;;5083746;28;20118;-73
2022/07/03 04:53:05;;;;;;;3.75;1.60;;;15.30;99.90;;;;;;5061169;28;20052;-72
2022/07/03 04:55:31;;;;;;;2.15;1.35;;;15.40;99.90;;;;;;5070307;28;20676;-72
2022/07/03 04:57:56;;;;;;;1.98;1.27;;;15.30;99.90;;;;;;5090151;28;20036;-72
2022/07/03 05:00:22;;;;;;;2.72;1.75;;;15.30;99.90;;;;;;5080694;28;20528;-73
2022/07/03 05:02:47;;;;;;;2.50;1.52;;;15.30;99.90;;;;;;5078926;28;20058;-73
2022/07/03 05:05:13;;;;;;;3.00;1.58;;;15.30;99.90;;;;;;5082197;28;20064;-73
2022/07/03 05:07:38;;;;;;;2.75;1.75;;;15.30;99.90;;;;;;5062541;28;20099;-72
2022/07/03 05:10:05;;;;;;;2.50;1.55;;;15.30;99.90;;;;;;5072884;28;20046;-72
2022/07/03 05:12:30;;;;;;;2.53;1.52;;;15.30;99.90;;;;;;5066119;28;20074;-72
2022/07/03 05:14:56;;;;;;;2.80;1.90;;;15.40;99.90;;;;;;5066561;28;20072;-72
2022/07/03 05:17:22;;;;;;;2.78;1.80;;;15.40;99.90;;;;;;5070380;28;20044;-72
2022/07/03 05:19:47;;;;;;;2.53;1.80;;;15.40;99.90;;;;;;5080980;28;20044;-73
2022/07/03 05:22:13;;;;;;;2.55;1.73;;;15.40;99.90;;;;;;5058333;28;20037;-72
2022/07/03 05:24:39;;;;;;;3.42;1.80;;;15.50;99.90;;;;;;5078517;28;20037;-73
2022/07/03 05:27:04;;;;;;;2.80;1.95;;;15.50;99.90;;;;;;5070206;28;20032;-72
2022/07/03 05:29:30;;;;;;;2.65;1.98;;;15.60;99.90;;;;;;5064281;28;20035;-72
2022/07/03 05:31:56;;;;;;;2.75;2.13;;;15.50;99.90;;;;;;5072738;28;20041;-72
2022/07/03 05:34:21;;;;;;;3.05;1.88;;;15.60;99.90;;;;;;5063117;28;20594;-72
2022/07/03 05:36:47;;;;;;;3.45;2.15;;;15.60;99.90;;;;;;5068556;28;20044;-72
2022/07/03 05:41:57;;;;;;;4.93;1.80;;;15.70;99.90;;;;;;5062858;28;20136;-72
2022/07/03 05:44:22;;;;;;;3.28;2.15;;;15.70;99.90;;;;;;5051205;28;20126;-72
2022/07/03 05:46:48;;;;;;;2.67;1.92;;;15.80;99.90;;;;;;5061545;28;20042;-72
2022/07/03 05:49:14;;;;;;;2.78;2.00;;;15.80;99.90;;;;;;5069685;28;20059;-72
2022/07/03 05:51:39;;;;;;;2.53;1.67;;;15.90;99.90;;;;;;5071378;28;20036;-72
2022/07/03 05:54:05;;;;;;;2.45;1.73;;;16.00;99.90;;;;;;5059053;28;20037;-73
2022/07/03 05:56:31;;;;;;;1.73;1.50;;;16.00;99.90;;;;;;5082509;28;20571;-72
2022/07/03 05:58:56;;;;;;;1.90;1.35;;;16.10;99.90;;;;;;5063066;28;20041;-72
2022/07/03 06:01:23;;;;;;;2.60;1.50;;;16.10;99.90;;;;;;5076890;28;20043;-72
2022/07/03 06:03:49;;;;;;;2.20;1.48;;;16.30;99.90;;;;;;5071270;28;20055;-72
2022/07/03 06:06:15;;;;;;;1.50;1.10;;;16.50;99.90;;;;;;5059783;28;20044;-72
2022/07/03 06:08:40;;;;;;;1.55;0.95;;;16.50;99.90;;;;;;5088854;28;20048;-72
2022/07/03 06:11:06;;;;;;;1.38;0.82;;;16.60;99.90;;;;;;5070715;28;20490;-72
2022/07/03 06:13:32;;;;;;;1.90;0.90;;;16.70;99.90;;;;;;5061355;28;20531;-72
2022/07/03 06:15:57;;;;;;;3.20;0.98;;;16.80;99.90;;;;;;5056387;28;20391;-72
2022/07/03 06:18:23;;;;;;;1.08;0.60;;;16.90;99.90;;;;;;5052357;28;20048;-73
2022/07/03 06:20:48;;;;;;;1.95;1.00;;;16.90;99.90;;;;;;5064925;28;20037;-72
2022/07/03 06:23:14;;;;;;;4.25;0.70;;;17.00;99.90;;;;;;5065561;28;20096;-73
2022/07/03 06:25:40;;;;;;;0.80;0.60;;;17.10;99.90;;;;;;5063844;28;20043;-73
2022/07/03 06:28:05;;;;;;;1.15;0.80;;;17.20;99.90;;;;;;5067740;28;20091;-73
2022/07/03 06:30:31;;;;;;;1.30;0.90;;;17.30;99.90;;;;;;5085955;28;20040;-73
2022/07/03 06:32:57;;;;;;;1.02;0.70;;;17.60;99.90;;;;;;5067984;28;20043;-73
2022/07/03 06:35:22;;;;;;;1.33;0.80;;;17.80;99.90;;;;;;5065152;28;20037;-73
2022/07/03 06:37:48;;;;;;;1.98;0.65;;;18.30;99.90;;;;;;5074817;28;20036;-72
2022/07/03 06:40:14;;;;;;;1.30;0.70;;;19.30;99.90;;;;;;5061501;28;20045;-73
2022/07/03 06:42:39;;;;;;;2.17;0.60;;;20.50;99.90;;;;;;5059692;28;20067;-73
2022/07/03 06:45:05;;;;;;;0.40;0.30;;;21.40;99.90;;;;;;5079810;28;20144;-73
2022/07/03 06:47:35;;;;;;;3.55;0.70;;;21.40;99.90;;;;;;5063345;28;20494;-73
2022/07/03 06:50:01;;;;;;;0.65;0.50;;;21.00;99.90;;;;;;5057520;28;20069;-73
2022/07/03 06:52:27;;;;;;;1.08;0.40;;;20.70;99.90;;;;;;5082271;28;20165;-73
2022/07/03 06:54:52;;;;;;;0.75;0.43;;;20.70;99.90;;;;;;5073171;28;20558;-73
2022/07/03 06:57:18;;;;;;;0.90;0.40;;;20.70;99.90;;;;;;5076020;28;20041;-73
2022/07/03 06:59:44;;;;;;;2.03;0.50;;;20.50;99.90;;;;;;5063527;28;20040;-73
2022/07/03 07:02:09;;;;;;;1.10;0.50;;;20.40;99.90;;;;;;5072617;28;20082;-73
2022/07/03 07:04:35;;;;;;;0.50;0.32;;;20.20;99.90;;;;;;5059572;28;20604;-73
2022/07/03 07:07:00;;;;;;;0.73;0.50;;;20.10;99.90;;;;;;5049070;28;20053;-73
2022/07/03 07:09:26;;;;;;;0.85;0.50;;;20.00;99.90;;;;;;5058012;28;20037;-73
2022/07/03 07:11:52;;;;;;;0.55;0.40;;;19.80;99.90;;;;;;5067205;28;20048;-73
2022/07/03 07:14:18;;;;;;;2.70;0.63;;;19.80;99.90;;;;;;5062642;28;20040;-77
2022/07/03 07:16:43;;;;;;;0.88;0.60;;;19.70;99.90;;;;;;5069408;28;20086;-73
2022/07/03 07:19:09;;;;;;;1.10;0.68;;;19.70;99.90;;;;;;5056712;28;20479;-73
2022/07/03 07:21:34;;;;;;;0.85;0.40;;;19.60;99.90;;;;;;5057372;28;20656;-73
2022/07/03 07:24:00;;;;;;;1.10;0.60;;;19.70;99.90;;;;;;5050354;28;20049;-73
2022/07/03 07:26:26;;;;;;;2.83;0.60;;;19.70;99.90;;;;;;5058307;28;20040;-74
2022/07/03 07:28:51;;;;;;;0.60;0.50;;;19.60;99.90;;;;;;5086249;28;20044;-74
2022/07/03 07:31:17;;;;;;;1.27;0.52;;;19.60;99.90;;;;;;5073323;28;20035;-73
2022/07/03 07:33:42;;;;;;;1.23;0.50;;;19.60;99.90;;;;;;5069314;28;20052;-73
2022/07/03 07:36:08;;;;;;;2.13;0.60;;;19.60;99.90;;;;;;5054961;28;21203;-73
2022/07/03 07:38:34;;;;;;;0.95;0.40;;;19.60;99.90;;;;;;5066525;28;20066;-73
2022/07/03 07:40:59;;;;;;;1.08;0.55;;;19.60;99.90;;;;;;5076339;28;20094;-73
2022/07/03 07:43:25;;;;;;;1.48;0.55;;;19.60;99.90;;;;;;5074150;28;20063;-73
2022/07/03 07:45:52;;;;;;;0.70;0.50;;;19.60;99.90;;;;;;5074685;28;20046;-73
2022/07/03 07:48:18;;;;;;;2.47;0.60;;;19.60;99.90;;;;;;5072584;28;20045;-74
2022/07/03 07:50:44;;;;;;;1.08;0.50;;;19.50;99.90;;;;;;5067918;28;20028;-74
2022/07/03 07:53:10;;;;;;;1.52;0.50;;;19.50;99.90;;;;;;5070496;28;20044;-74
2022/07/03 07:55:36;;;;;;;1.05;0.63;;;19.50;99.90;;;;;;5078534;28;20051;-74
2022/07/03 07:58:01;;;;;;;0.38;0.30;;;19.50;99.90;;;;;;5073075;28;20036;-74
2022/07/03 08:00:27;;;;;;;3.70;0.43;;;19.50;99.90;;;;;;5068671;28;20343;-73
2022/07/03 08:05:37;;;;;;;3.13;0.50;;;19.50;99.90;;;;;;5066115;28;20052;-74
2022/07/03 08:08:18;;;;;;;1.85;0.50;;;19.60;99.90;;;;;;5077649;28;20085;-73
2022/07/03 08:10:49;;;;;;;1.77;0.52;;;19.60;99.90;;;;;;5069625;28;20402;-73
2022/07/03 08:13:17;;;;;;;1.10;0.50;;;19.60;99.90;;;;;;5065449;28;20036;-73
2022/07/03 08:15:43;;;;;;;0.50;0.30;;;19.70;99.90;;;;;;5077418;28;20035;-73
2022/07/03 08:18:09;;;;;;;0.93;0.47;;;19.70;99.90;;;;;;5078121;28;20059;-73
2022/07/03 08:20:36;;;;;;;0.63;0.52;;;19.70;99.90;;;;;;5075035;28;20036;-73
2022/07/03 08:23:03;;;;;;;0.50;0.30;;;19.80;99.90;;;;;;5054406;28;20599;-73
2022/07/03 08:25:29;;;;;;;0.52;0.22;;;19.80;99.90;;;;;;5073468;28;20044;-73
2022/07/03 08:27:56;;;;;;;0.60;0.40;;;19.90;99.90;;;;;;5053492;28;20139;-73
2022/07/03 08:30:21;;;;;;;0.55;0.38;;;20.10;99.90;;;;;;5080820;28;20661;-73
2022/07/03 08:32:52;;;;;;;1.13;0.50;;;20.10;99.90;;;;;;5058980;28;20071;-73
2022/07/03 08:35:18;;;;;;;1.23;0.60;;;20.10;99.90;;;;;;5061882;28;20083;-73
2022/07/03 08:37:46;;;;;;;0.90;0.47;;;20.00;99.90;;;;;;5076633;28;20040;-73
2022/07/03 08:40:14;;;;;;;1.73;0.50;;;20.00;99.90;;;;;;5072233;28;20049;-73
2022/07/03 08:42:46;;;;;;;2.05;0.45;;;19.90;99.90;;;;;;5056130;28;20028;-74
2022/07/03 08:45:17;;;;;;;0.95;0.52;;;19.80;99.90;;;;;;5077511;28;20036;-74
2022/07/03 08:47:44;;;;;;;1.02;0.50;;;19.80;99.90;;;;;;5078174;28;20039;-73
2022/07/03 08:50:12;;;;;;;1.00;0.57;;;19.90;99.90;;;;;;5062048;28;20123;-74
2022/07/03 08:52:38;;;;;;;2.47;0.40;;;19.90;99.90;;;;;;5072139;28;20036;-73
2022/07/03 08:55:04;;;;;;;1.92;0.68;;;19.90;99.90;;;;;;5074752;28;20071;-74
2022/07/03 08:57:35;;;;;;;2.30;0.68;;;20.00;99.90;;;;;;5072061;28;20036;-73
2022/07/03 09:00:03;;;;;;;0.80;0.60;;;20.10;99.90;;;;;;5071004;28;20048;-73
2022/07/03 09:02:30;;;;;;;2.50;0.70;;;20.20;99.90;;;;;;5073659;28;20039;-73
2022/07/03 09:04:57;;;;;;;0.75;0.40;;;20.20;99.90;;;;;;5069985;28;20090;-74
2022/07/03 09:07:25;;;;;;;1.30;0.70;;;20.30;99.90;;;;;;5068680;28;20074;-73
2022/07/03 09:09:51;;;;;;;0.40;0.30;;;20.20;99.90;;;;;;5067043;28;20045;-73
2022/07/03 09:12:17;;;;;;;0.65;0.38;;;20.30;99.90;;;;;;5077631;28;20390;-73
2022/07/03 09:14:43;;;;;;;1.80;0.70;;;20.30;99.90;;;;;;5071550;28;20039;-73
2022/07/03 09:17:10;;;;;;;0.45;0.30;;;20.50;99.90;;;;;;5066822;28;20043;-81
2022/07/03 09:19:47;;;;;;;1.02;0.40;;;20.50;99.90;;;;;;5058002;28;20230;-74
2022/07/03 09:22:26;;;;;;;1.42;0.50;;;20.60;99.40;;;;;;5059751;28;20066;-77
2022/07/03 09:24:54;;;;;;;1.27;0.35;;;20.60;98.80;;;;;;5071135;28;20037;-73
2022/07/03 09:27:21;;;;;;;0.20;0.20;;;20.50;99.30;;;;;;5065330;28;20043;-74
2022/07/03 09:30:08;;;;;;;0.40;0.40;;;20.60;99.20;;;;;;5072585;28;20106;-74
2022/07/03 09:32:37;;;;;;;0.45;0.30;;;20.50;97.20;;;;;;5067190;28;20070;-74
2022/07/03 09:35:17;;;;;;;0.70;0.43;;;20.50;98.80;;;;;;5064120;28;20050;-73
2022/07/03 09:37:58;;;;;;;0.63;0.40;;;20.50;98.30;;;;;;5062036;28;20048;-74
2022/07/03 09:40:26;;;;;;;1.42;0.47;;;20.60;98.80;;;;;;5060810;28;20024;-74
2022/07/03 09:43:08;;;;;;;1.52;0.32;;;20.60;98.60;;;;;;5079726;28;20171;-74
2022/07/03 09:45:56;;;;;;;2.33;0.60;;;20.50;97.70;;;;;;5048065;28;20132;-74
2022/07/03 09:48:21;;;;;;;0.60;0.40;;;20.60;98.30;;;;;;5058315;28;20047;-74
2022/07/03 09:50:47;;;;;;;0.70;0.40;;;20.60;98.70;;;;;;5061710;28;20500;-74
2022/07/03 09:53:12;;;;;;;1.38;0.40;;;20.60;98.00;;;;;;5053581;28;20040;-74
2022/07/03 09:55:38;;;;;;;0.47;0.28;;;20.60;97.70;;;;;;5068175;28;20037;-74
2022/07/03 09:58:04;;;;;;;1.55;0.40;;;20.60;97.90;;;;;;5063609;28;20047;-73
2022/07/03 10:00:32;;;;;;;0.20;0.20;;;20.70;97.80;;;;;;5077340;28;20037;-73
2022/07/03 10:03:00;;;;;;;2.33;0.30;;;20.80;97.20;;;;;;5068061;28;20038;-73
2022/07/03 10:05:42;;;;;;;1.00;0.20;;;20.80;96.90;;;;;;5059135;28;20049;-73
2022/07/03 10:08:13;;;;;;;0.73;0.22;;;20.70;95.10;;;;;;5057198;28;20045;-74
2022/07/03 10:10:43;;;;;;;0.43;0.15;;;20.80;96.80;;;;;;5085714;28;20066;-73
2022/07/03 10:13:10;;;;;;;0.10;0.10;;;20.80;96.80;;;;;;5041385;28;20691;-74
2022/07/03 10:15:37;;;;;;;0.93;0.50;;;20.90;96.00;;;;;;5060960;28;20040;-74
2022/07/03 10:18:08;;;;;;;0.10;0.10;;;20.90;95.80;;;;;;5055946;28;20963;-74
2022/07/03 10:20:56;;;;;;;0.38;0.20;;;21.00;95.50;;;;;;5073553;28;20032;-74
2022/07/03 10:23:22;;;;;;;2.35;0.20;;;21.00;92.70;;;;;;5057698;28;20078;-74
2022/07/03 10:25:48;;;;;;;0.32;0.20;;;21.10;95.50;;;;;;5064945;28;20583;-74
2022/07/03 10:28:17;;;;;;;0.80;0.30;;;21.10;95.70;;;;;;5053596;28;20060;-74
2022/07/03 10:30:44;;;;;;;0.45;0.30;;;21.20;95.60;;;;;;5059007;28;20040;-75
2022/07/03 10:33:09;;;;;;;0.50;0.30;;;21.30;95.50;;;;;;5058057;28;20052;-75
2022/07/03 10:35:38;;;;;;;0.40;0.25;;;21.30;94.90;;;;;;5055731;28;20111;-75
2022/07/03 10:38:22;;;;;;;0.68;0.30;;;21.20;94.50;;;;;;5055278;28;20401;-75
2022/07/03 10:46:52;;;;;;;0.73;0.30;;;21.00;95.50;;;;;;5053872;28;20045;-75
2022/07/03 10:49:18;;;;;;;0.30;0.17;;;21.10;95.60;;;;;;5056746;28;20044;-75
2022/07/03 10:52:00;;;;;;;1.17;0.40;;;21.30;95.50;;;;;;5058781;28;20113;-75
2022/07/03 10:54:31;;;;;;;0.50;0.30;;;21.40;94.30;;;;;;5056357;28;20579;-75
2022/07/03 10:57:02;;;;;;;0.28;0.10;;;21.40;94.50;;;;;;5055638;28;20060;-75
2022/07/03 10:59:40;;;;;;;0.75;0.38;;;21.50;94.30;;;;;;5054571;28;20078;-74
2022/07/03 11:02:18;;;;;;;0.17;0.17;;;21.40;93.90;;;;;;5053859;28;20062;-75
2022/07/03 11:04:59;;;;;;;0.60;0.20;;;21.40;93.10;;;;;;5061070;28;20040;-75
2022/07/03 11:07:25;;;;;;;0.95;0.20;;;21.40;92.30;;;;;;5056434;28;20044;-74
2022/07/03 11:10:12;;;;;;;0.52;0.20;;;21.30;94.30;;;;;;5051504;28;20033;-74
2022/07/03 11:13:11;;;;;;;1.45;0.38;;;21.10;93.60;;;;;;5052335;28;20056;-75
2022/07/03 11:15:41;;;;;;;0.20;0.15;;;21.10;93.30;;;;;;5052035;28;20506;-76
2022/07/03 11:18:13;;;;;;;8.00;0.52;;;21.10;95.20;;;;;;5057097;28;20056;-76
2022/07/03 11:20:42;;;;;;;0.30;0.20;;;21.10;94.40;;;;;;5067188;28;20755;-75
2022/07/03 11:23:20;;;;;;;0.25;0.20;;;21.20;93.80;;;;;;5058834;28;20084;-74
2022/07/03 11:25:48;;;;;;;0.55;0.38;;;21.40;92.10;;;;;;5061168;28;20047;-74
2022/07/03 11:28:32;;;;;;;0.45;0.20;;;21.50;92.80;;;;;;5065358;28;20027;-74
2022/07/03 11:33:46;;;;;;;0.35;0.20;;;21.60;92.40;;;;;;5073284;28;20069;-74
2022/07/03 11:36:15;;;;;;;0.32;0.10;;;21.70;92.60;;;;;;5071245;28;20035;-74
2022/07/03 11:38:40;;;;;;;0.85;0.40;;;21.70;92.70;;;;;;5070375;28;20145;-74
2022/07/03 11:41:08;;;;;;;0.30;0.20;;;21.70;92.60;;;;;;5069196;28;20349;-74
2022/07/03 11:43:34;;;;;;;0.22;0.13;;;21.80;92.00;;;;;;5064532;28;20072;-74
2022/07/03 11:46:00;;;;;;;0.47;0.30;;;21.70;91.80;;;;;;5066772;28;20044;-74
2022/07/03 11:48:28;;;;;;;0.35;0.20;;;21.70;91.70;;;;;;5067380;28;20033;-75
2022/07/03 11:51:02;;;;;;;0.10;0.10;;;21.60;92.10;;;;;;5059825;28;20068;-75
2022/07/03 11:53:36;;;;;;;0.20;0.20;;;21.60;91.90;;;;;;5065393;28;20101;-75
2022/07/03 11:56:15;;;;;;;0.35;0.20;;;21.70;92.10;;;;;;5070224;28;20059;-75
2022/07/03 11:58:45;;;;;;;0.47;0.20;;;21.80;91.60;;;;;;5070855;28;20311;-75
2022/07/03 12:01:27;;;;;;;1.77;0.40;;;21.80;92.40;;;;;;5071200;28;20116;-75
2022/07/03 12:04:03;;;;;;;0.60;0.20;;;21.80;92.20;;;;;;5060624;28;20638;-74
2022/07/03 12:06:49;;;;;;;0.55;0.28;;;21.70;92.00;;;;;;5056191;28;20393;-75
2022/07/03 12:09:18;;;;;;;1.23;0.40;;;21.70;91.80;;;;;;5066852;28;20068;-77
2022/07/03 12:11:58;;;;;;;0.40;0.30;;;21.70;93.00;;;;;;5070416;28;20426;-74
2022/07/03 12:14:56;;;;;;;1.20;0.50;;;21.70;92.10;;;;;;5053963;28;20673;-74
2022/07/03 12:17:24;;;;;;;1.48;0.35;;;21.80;90.60;;;;;;5064026;28;20064;-74
2022/07/03 12:19:55;;;;;;;0.50;0.30;;;21.70;92.00;;;;;;5080822;28;20115;-75
2022/07/03 12:22:28;;;;;;;0.50;0.22;;;21.60;92.00;;;;;;5074672;28;20068;-75
2022/07/03 12:25:05;;;;;;;0.38;0.20;;;21.50;91.60;;;;;;5071940;28;21173;-74
2022/07/03 12:27:33;;;;;;;1.23;0.30;;;21.60;90.20;;;;;;5068626;28;20045;-74
2022/07/03 12:29:59;;;;;;;0.52;0.25;;;21.70;92.00;;;;;;5076725;28;20379;-75
2022/07/03 12:32:25;;;;;;;0.95;0.55;;;21.80;92.20;;;;;;5066705;28;20490;-74
2022/07/03 12:34:51;;;;;;;0.35;0.30;;;21.80;92.10;;;;;;5055177;28;20036;-74
2022/07/03 12:37:16;;;;;;;1.65;0.30;;;21.90;91.90;;;;;;5060550;28;20044;-74
2022/07/03 12:39:47;;;;;;;0.32;0.15;;;21.90;91.50;;;;;;5067682;28;20491;-75
2022/07/03 12:42:16;;;;;;;3.13;0.30;;;22.00;91.40;;;;;;5072078;28;20548;-75
2022/07/03 12:44:41;;;;;;;1.25;0.40;;;21.90;91.10;;;;;;5071346;28;20119;-75
2022/07/03 12:47:07;;;;;;;1.13;0.32;;;21.90;91.80;;;;;;5070027;28;20045;-75
2022/07/03 12:49:33;;;;;;;0.40;0.20;;;21.80;91.90;;;;;;5070421;28;20389;-79
2022/07/03 12:51:58;;;;;;;0.32;0.20;;;21.80;92.10;;;;;;5050810;28;20068;-74
2022/07/03 12:54:35;;;;;;;0.40;0.30;;;21.70;92.20;;;;;;5050245;28;20487;-74
2022/07/03 13:00:06;;;;;;;0.05;0.05;;;21.70;92.40;;;;;;5049483;28;20061;-74
2022/07/03 13:02:36;;;;;;;0.73;0.20;;;21.70;92.20;;;;;;5048381;28;20048;-74
2022/07/03 13:05:19;;;;;;;0.20;0.20;;;21.80;92.60;;;;;;5049111;28;20047;-74
2022/07/03 13:07:48;;;;;;;1.25;0.30;;;21.70;91.10;;;;;;5069692;28;20445;-74
2022/07/03 13:10:18;;;;;;;0.98;0.30;;;21.70;92.20;;;;;;5067386;28;20440;-74
2022/07/03 13:12:51;;;;;;;0.50;0.30;;;21.80;92.00;;;;;;5069000;28;20062;-74
2022/07/03 13:15:19;;;;;;;0.20;0.20;;;21.80;90.80;;;;;;5065132;28;20055;-74
2022/07/03 13:17:50;;;;;;;0.43;0.22;;;21.80;91.70;;;;;;5049111;28;20131;-74